This is the latest recevied weather packets stored in our database for station/object WX5RP. If no packets are shown the sender has not sent any weather packets the latest 10 day(s).
| Time | Temp. | Humidity | Pressure | Rain* | Wind** | Luminosity | Snow |
|---|---|---|---|---|---|---|---|
| 1787868616 | 28.89° C | 23% | 1018.5 hPa | 0 mm | - | 826 W/m² | - |
| 1787868016 | 27.78° C | 23% | 1018.2 hPa | 0 mm | - | 300 W/m² | - |
| 1787867415 | 27.78° C | 26% | 1018.4 hPa | 0 mm | - | 240 W/m² | - |
| 1787866816 | 28.33° C | 23% | 1018.3 hPa | 0 mm | - | 305 W/m² | - |
| 1787866215 | 28.89° C | 19% | 1018.5 hPa | 0 mm | - | 828 W/m² | - |
| 1787865616 | 28.33° C | 29% | 1018.8 hPa | 0 mm | - | 878 W/m² | - |
| 1787865015 | 28.33° C | 25% | 1018.6 hPa | 0 mm | - | 740 W/m² | - |
| 1787864416 | 28.33° C | 24% | 1018.6 hPa | 0 mm | - | 872 W/m² | - |
| 1787863816 | 28.33° C | 20% | 1018.7 hPa | 0 mm | - | 886 W/m² | - |
| 1787863216 | 27.78° C | 24% | 1018.7 hPa | 0 mm | - | 894 W/m² | - |
| 1787862615 | 27.78° C | 24% | 1018.7 hPa | 0 mm | - | 898 W/m² | - |
| 1787862015 | 27.78° C | 27% | 1019.2 hPa | 0 mm | - | 906 W/m² | - |
| 1787861415 | 27.78° C | 24% | 1018.6 hPa | 0 mm | - | 911 W/m² | - |
| 1787860815 | 27.22° C | 25% | 1018.9 hPa | 0 mm | - | 911 W/m² | - |
| 1787860215 | 26.67° C | 26% | 1018.9 hPa | 0 mm | - | 920 W/m² | - |
| 1787859615 | 26.67° C | 27% | 1019.5 hPa | 0 mm | - | 807 W/m² | - |
| 1787859015 | 26.67° C | 30% | 1019.3 hPa | 0 mm | - | 912 W/m² | - |
| 1787858415 | 26.11° C | 31% | 1019.2 hPa | 0 mm | - | 929 W/m² | - |
| 1787857817 | 26.11° C | 25% | 1019.3 hPa | 0 mm | - | 911 W/m² | - |
| 1787857217 | 26.11° C | 28% | 1019.1 hPa | 0 mm | - | 896 W/m² | - |
| 1787856617 | 25.56° C | 26% | 1019.4 hPa | 0 mm | - | 888 W/m² | - |
| 1787856020 | 25.56° C | 28% | 1019.8 hPa | 0 mm | - | 872 W/m² | - |
| 1787855417 | 25° C | 29% | 1019.8 hPa | 0 mm | - | 853 W/m² | - |
| 1787854817 | 24.44° C | 29% | 1020.3 hPa | 0 mm | - | 841 W/m² | - |
| 1787854217 | 23.89° C | 30% | 1020.3 hPa | 0 mm | - | 816 W/m² | - |
* Rain latest hour (hover to see other rain measurements)
** Current wind speed in m/s (hover to see current wind gust speed)